Time;durP1;ratioP1;P1;durP2;ratioP2;P2;SDS_P1;SDS_P2;PMS_P1;PMS_P2;Temp;Humidity;BMP_temperature;BMP_pressure;BME280_temperature;BME280_humidity;BME280_pressure;Samples;Min_cycle;Max_cycle;Signal;HPM_P1;HPM_P2
2024/01/11 00:02:01;;;;;;;;;;;;;;;;;;5091483;28;20490;-86
2024/01/11 00:04:26;;;;;;;;;;;;;;;;;;5089042;28;19915;-86
2024/01/11 00:06:52;;;;;;;;;;;;;;;;;;5093256;28;19913;-86
2024/01/11 00:09:18;;;;;;;;;;;;;;;;;;5090451;28;19916;-86
2024/01/11 00:11:44;;;;;;;;;;;;;;;;;;5095721;28;19958;-86
2024/01/11 00:14:10;;;;;;;;;;;;;;;;;;5086311;28;19908;-87
2024/01/11 00:16:36;;;;;;;;;;;;;;;;;;5099650;28;19923;-86
2024/01/11 00:19:02;;;;;;;;;;;;;;;;;;5099576;28;19976;-86
2024/01/11 00:21:28;;;;;;;;;;;;;;;;;;5101781;28;19912;-87
2024/01/11 00:23:54;;;;;;;;;;;;;;;;;;5092774;28;19927;-86
2024/01/11 00:26:19;;;;;;;;;;;;;;;;;;5104864;28;20412;-86
2024/01/11 00:28:45;;;;;;;;;;;;;;;;;;5093456;28;20003;-86
2024/01/11 00:31:11;;;;;;;;;;;;;;;;;;5089791;28;19908;-86
2024/01/11 00:33:37;;;;;;;;;;;;;;;;;;5107688;28;20496;-86
2024/01/11 00:36:03;;;;;;;;;;;;;;;;;;5101605;28;19995;-86
2024/01/11 00:38:29;;;;;;;;;;;;;;;;;;5098044;28;19948;-87
2024/01/11 00:40:55;;;;;;;;;;;;;;;;;;5099815;28;19922;-85
2024/01/11 00:43:21;;;;;;;;;;;;;;;;;;5100392;28;19915;-86
2024/01/11 00:45:47;;;;;;;;;;;;;;;;;;5101648;28;19912;-86
2024/01/11 00:48:12;;;;;;;;;;;;;;;;;;5095444;28;19923;-85
2024/01/11 00:50:38;;;;;;;;;;;;;;;;;;5098138;28;19916;-86
2024/01/11 00:53:04;;;;;;;;;;;;;;;;;;5094927;28;20255;-85
2024/01/11 00:55:30;;;;;;;;;;;;;;;;;;5106942;28;19908;-86
2024/01/11 00:57:56;;;;;;;;;;;;;;;;;;5103157;28;19916;-86
2024/01/11 01:00:22;;;;;;;;;;;;;;;;;;5106123;28;20008;-86
2024/01/11 01:02:48;;;;;;;;;;;;;;;;;;5105141;28;19912;-86
2024/01/11 01:05:14;;;;;;;;;;;;;;;;;;5102502;28;19926;-86
2024/01/11 01:07:39;;;;;;;;;;;;;;;;;;5098781;28;19916;-85
2024/01/11 01:10:05;;;;;;;;;;;;;;;;;;5097438;28;19919;-86
2024/01/11 01:12:31;;;;;;;;;;;;;;;;;;5099449;28;19935;-85
2024/01/11 01:14:57;;;;;;;;;;;;;;;;;;5103267;28;19933;-85
2024/01/11 01:17:23;;;;;;;;;;;;;;;;;;5100369;28;19912;-85
2024/01/11 01:19:49;;;;;;;;;;;;;;;;;;5095405;28;19938;-85
2024/01/11 01:22:15;;;;;;;;;;;;;;;;;;5106599;28;19927;-85
2024/01/11 01:24:40;;;;;;;;;;;;;;;;;;5106187;28;20016;-86
2024/01/11 01:27:06;;;;;;;;;;;;;;;;;;5105217;28;20585;-85
2024/01/11 01:29:32;;;;;;;;;;;;;;;;;;5100938;28;19912;-85
2024/01/11 01:31:58;;;;;;;;;;;;;;;;;;5104378;28;19916;-86
2024/01/11 01:34:24;;;;;;;;;;;;;;;;;;5097512;28;19923;-85
2024/01/11 01:36:50;;;;;;;;;;;;;;;;;;5101619;28;19927;-86
2024/01/11 01:39:16;;;;;;;;;;;;;;;;;;5092616;28;19912;-85
2024/01/11 01:41:41;;;;;;;;;;;;;;;;;;5099723;28;20326;-86
2024/01/11 01:44:07;;;;;;;;;;;;;;;;;;5088191;28;19920;-86
2024/01/11 01:46:34;;;;;;;;;;;;;;;;;;5089833;28;20015;-85
2024/01/11 01:49:00;;;;;;;;;;;;;;;;;;5089001;28;19919;-86
2024/01/11 01:51:26;;;;;;;;;;;;;;;;;;5095926;28;19919;-86
2024/01/11 01:53:52;;;;;;;;;;;;;;;;;;5095312;28;19919;-85
2024/01/11 01:56:17;;;;;;;;;;;;;;;;;;5089082;28;19998;-86
2024/01/11 01:58:43;;;;;;;;;;;;;;;;;;5100642;28;19912;-85
2024/01/11 02:01:10;;;;;;;;;;;;;;;;;;5089066;28;19955;-86
2024/01/11 02:03:35;;;;;;;;;;;;;;;;;;5088812;28;19920;-85
2024/01/11 02:06:01;;;;;;;;;;;;;;;;;;5091392;28;19912;-85
2024/01/11 02:08:27;;;;;;;;;;;;;;;;;;5090703;28;20003;-85
2024/01/11 02:10:53;;;;;;;;;;;;;;;;;;5088095;28;19958;-85
2024/01/11 02:13:19;;;;;;;;;;;;;;;;;;5093630;28;19916;-86
2024/01/11 02:15:45;;;;;;;;;;;;;;;;;;5088945;28;19908;-85
2024/01/11 02:18:11;;;;;;;;;;;;;;;;;;5089979;28;19913;-85
2024/01/11 02:20:37;;;;;;;;;;;;;;;;;;5085912;28;19912;-85
2024/01/11 02:23:02;;;;;;;;;;;;;;;;;;5084493;28;19916;-86
2024/01/11 02:25:28;;;;;;;;;;;;;;;;;;5081897;28;19912;-85
2024/01/11 02:27:54;;;;;;;;;;;;;;;;;;5076659;28;19931;-85
2024/01/11 02:30:20;;;;;;;;;;;;;;;;;;5080152;28;19920;-85
2024/01/11 02:32:46;;;;;;;;;;;;;;;;;;5084701;28;19920;-85
2024/01/11 02:35:12;;;;;;;;;;;;;;;;;;5077610;28;19919;-85
2024/01/11 02:37:39;;;;;;;;;;;;;;;;;;5084330;28;19912;-85
2024/01/11 02:40:05;;;;;;;;;;;;;;;;;;5084415;28;19912;-85
2024/01/11 02:42:31;;;;;;;;;;;;;;;;;;5082491;28;19919;-85
2024/01/11 02:44:57;;;;;;;;;;;;;;;;;;5092663;28;19962;-85
2024/01/11 02:47:22;;;;;;;;;;;;;;;;;;5087978;28;20416;-84
2024/01/11 02:49:48;;;;;;;;;;;;;;;;;;5077476;28;19931;-85
2024/01/11 02:52:14;;;;;;;;;;;;;;;;;;5094097;28;20353;-85
2024/01/11 02:54:40;;;;;;;;;;;;;;;;;;5095160;28;19947;-85
2024/01/11 02:57:06;;;;;;;;;;;;;;;;;;5083371;28;20461;-85
2024/01/11 02:59:32;;;;;;;;;;;;;;;;;;5085451;28;19912;-85
2024/01/11 03:01:58;;;;;;;;;;;;;;;;;;5087733;28;19957;-85
2024/01/11 03:04:24;;;;;;;;;;;;;;;;;;5095392;28;19916;-84
2024/01/11 03:06:49;;;;;;;;;;;;;;;;;;5091507;28;20012;-85
2024/01/11 03:09:15;;;;;;;;;;;;;;;;;;5088842;28;19920;-85
2024/01/11 03:11:41;;;;;;;;;;;;;;;;;;5084930;28;19912;-85
2024/01/11 03:14:07;;;;;;;;;;;;;;;;;;5094647;28;19919;-85
2024/01/11 03:16:33;;;;;;;;;;;;;;;;;;5079328;28;19915;-85
2024/01/11 03:18:59;;;;;;;;;;;;;;;;;;5085418;28;19912;-85
2024/01/11 03:21:25;;;;;;;;;;;;;;;;;;5092431;28;19912;-85
2024/01/11 03:23:51;;;;;;;;;;;;;;;;;;5084708;28;19925;-85
2024/01/11 03:26:17;;;;;;;;;;;;;;;;;;5083535;28;19965;-85
2024/01/11 03:28:43;;;;;;;;;;;;;;;;;;5095251;28;19957;-85
2024/01/11 03:31:09;;;;;;;;;;;;;;;;;;5083651;28;19917;-86
2024/01/11 03:33:35;;;;;;;;;;;;;;;;;;5087773;28;20442;-85
2024/01/11 03:36:00;;;;;;;;;;;;;;;;;;5089505;28;19923;-85
2024/01/11 03:38:26;;;;;;;;;;;;;;;;;;5085384;28;19908;-85
2024/01/11 03:40:52;;;;;;;;;;;;;;;;;;5085717;28;19913;-85
2024/01/11 03:43:18;;;;;;;;;;;;;;;;;;5086819;28;19916;-85
2024/01/11 03:45:44;;;;;;;;;;;;;;;;;;5088992;28;19913;-85
2024/01/11 03:48:10;;;;;;;;;;;;;;;;;;5087782;28;20282;-85
2024/01/11 03:50:35;;;;;;;;;;;;;;;;;;5087406;28;20012;-85
2024/01/11 03:53:02;;;;;;;;;;;;;;;;;;5083307;28;19962;-85
2024/01/11 03:55:28;;;;;;;;;;;;;;;;;;5089225;28;19912;-85
2024/01/11 03:57:54;;;;;;;;;;;;;;;;;;5092664;28;20378;-85
2024/01/11 04:00:20;;;;;;;;;;;;;;;;;;5084633;28;19976;-85
2024/01/11 04:02:46;;;;;;;;;;;;;;;;;;5076608;28;19954;-85
2024/01/11 04:05:11;;;;;;;;;;;;;;;;;;5089778;28;19919;-85
2024/01/11 04:07:37;;;;;;;;;;;;;;;;;;5086327;28;19923;-85
2024/01/11 04:10:03;;;;;;;;;;;;;;;;;;5082158;28;19916;-85
2024/01/11 04:12:29;;;;;;;;;;;;;;;;;;5088558;28;19924;-85
2024/01/11 04:14:55;;;;;;;;;;;;;;;;;;5089530;28;19912;-85
2024/01/11 04:17:21;;;;;;;;;;;;;;;;;;5090234;28;19912;-85
2024/01/11 04:19:47;;;;;;;;;;;;;;;;;;5091312;28;19988;-85
2024/01/11 04:22:13;;;;;;;;;;;;;;;;;;5087140;28;20252;-85
2024/01/11 04:24:39;;;;;;;;;;;;;;;;;;5085864;28;20025;-86
2024/01/11 04:27:04;;;;;;;;;;;;;;;;;;5083848;28;19959;-85
2024/01/11 04:29:30;;;;;;;;;;;;;;;;;;5082349;28;19927;-85
2024/01/11 04:31:56;;;;;;;;;;;;;;;;;;5090710;28;19912;-85
2024/01/11 04:34:22;;;;;;;;;;;;;;;;;;5080135;28;19951;-85
2024/01/11 04:36:48;;;;;;;;;;;;;;;;;;5090278;28;20385;-85
2024/01/11 04:39:14;;;;;;;;;;;;;;;;;;5087083;28;20339;-85
2024/01/11 04:41:39;;;;;;;;;;;;;;;;;;5085184;28;19912;-84
2024/01/11 04:44:05;;;;;;;;;;;;;;;;;;5090263;28;19967;-85
2024/01/11 04:46:31;;;;;;;;;;;;;;;;;;5089639;28;19908;-85
2024/01/11 04:48:57;;;;;;;;;;;;;;;;;;5088466;28;20450;-85
2024/01/11 04:51:23;;;;;;;;;;;;;;;;;;5085405;28;20319;-85
2024/01/11 04:53:49;;;;;;;;;;;;;;;;;;5091398;28;20413;-85
2024/01/11 04:56:15;;;;;;;;;;;;;;;;;;5079534;28;19912;-85
2024/01/11 04:58:41;;;;;;;;;;;;;;;;;;5088248;28;19912;-85
2024/01/11 05:01:07;;;;;;;;;;;;;;;;;;5093339;28;19919;-85
2024/01/11 05:03:33;;;;;;;;;;;;;;;;;;5088032;28;19913;-85
2024/01/11 05:05:58;;;;;;;;;;;;;;;;;;5089933;28;19916;-85
2024/01/11 05:08:24;;;;;;;;;;;;;;;;;;5091050;28;19922;-86
2024/01/11 05:10:50;;;;;;;;;;;;;;;;;;5080484;28;20530;-85
2024/01/11 05:13:16;;;;;;;;;;;;;;;;;;5085579;28;20054;-85
2024/01/11 05:15:42;;;;;;;;;;;;;;;;;;5081969;28;19914;-84
2024/01/11 05:18:08;;;;;;;;;;;;;;;;;;5081080;28;20382;-85
2024/01/11 05:20:33;;;;;;;;;;;;;;;;;;5087355;28;19919;-85
2024/01/11 05:23:00;;;;;;;;;;;;;;;;;;5086180;28;19916;-85
2024/01/11 05:25:26;;;;;;;;;;;;;;;;;;5086807;28;19912;-86
2024/01/11 05:27:52;;;;;;;;;;;;;;;;;;5085296;28;20321;-85
2024/01/11 05:30:18;;;;;;;;;;;;;;;;;;5087285;28;19915;-85
2024/01/11 05:32:44;;;;;;;;;;;;;;;;;;5088323;28;19916;-85
2024/01/11 05:35:10;;;;;;;;;;;;;;;;;;5076707;28;19916;-85
2024/01/11 05:37:36;;;;;;;;;;;;;;;;;;5081220;28;19920;-87
2024/01/11 05:40:01;;;;;;;;;;;;;;;;;;5069814;28;19912;-84
2024/01/11 05:42:27;;;;;;;;;;;;;;;;;;5077557;28;20002;-85
2024/01/11 05:44:53;;;;;;;;;;;;;;;;;;5071022;28;20290;-84
2024/01/11 05:47:19;;;;;;;;;;;;;;;;;;5078457;28;19920;-84
2024/01/11 05:49:45;;;;;;;;;;;;;;;;;;5082302;28;19916;-84
2024/01/11 05:52:11;;;;;;;;;;;;;;;;;;5075364;28;19919;-84
2024/01/11 05:54:37;;;;;;;;;;;;;;;;;;5073445;28;19917;-84
2024/01/11 05:57:03;;;;;;;;;;;;;;;;;;5081627;28;20425;-84
2024/01/11 05:59:28;;;;;;;;;;;;;;;;;;5090064;28;19937;-85
2024/01/11 06:01:54;;;;;;;;;;;;;;;;;;5083052;28;19944;-86
2024/01/11 06:04:20;;;;;;;;;;;;;;;;;;5069163;28;19935;-85
2024/01/11 06:06:46;;;;;;;;;;;;;;;;;;5084476;28;19912;-86
2024/01/11 06:09:12;;;;;;;;;;;;;;;;;;5091797;28;19912;-85
2024/01/11 06:11:38;;;;;;;;;;;;;;;;;;5080185;28;19916;-86
2024/01/11 06:14:04;;;;;;;;;;;;;;;;;;5087958;28;19919;-87
2024/01/11 06:16:29;;;;;;;;;;;;;;;;;;5073986;28;19917;-85
2024/01/11 06:18:55;;;;;;;;;;;;;;;;;;5084312;28;19912;-82
2024/01/11 06:21:24;;;;;;;;;;;;;;;;;;5092101;28;20006;-82
2024/01/11 06:23:50;;;;;;;;;;;;;;;;;;5083708;28;19940;-82
2024/01/11 06:26:16;;;;;;;;;;;;;;;;;;5081084;28;20359;-82
2024/01/11 06:28:41;;;;;;;;;;;;;;;;;;5089200;28;20356;-82
2024/01/11 06:31:07;;;;;;;;;;;;;;;;;;5083636;28;20478;-82
2024/01/11 06:33:36;;;;;;;;;;;;;;;;;;5072689;28;19917;-82
2024/01/11 06:36:02;;;;;;;;;;;;;;;;;;5090178;28;19946;-81
2024/01/11 06:38:28;;;;;;;;;;;;;;;;;;5086470;28;20310;-81
2024/01/11 06:40:54;;;;;;;;;;;;;;;;;;5090216;28;20285;-81
2024/01/11 06:43:20;;;;;;;;;;;;;;;;;;5079480;28;19913;-81
2024/01/11 06:45:45;;;;;;;;;;;;;;;;;;5079648;28;19927;-81
2024/01/11 06:48:11;;;;;;;;;;;;;;;;;;5079904;28;19924;-81
2024/01/11 06:50:37;;;;;;;;;;;;;;;;;;5092023;28;19965;-81
2024/01/11 06:53:03;;;;;;;;;;;;;;;;;;5092279;28;19911;-81
2024/01/11 06:55:29;;;;;;;;;;;;;;;;;;5090936;28;19922;-81
2024/01/11 06:57:55;;;;;;;;;;;;;;;;;;5087422;28;19912;-82
2024/01/11 07:00:21;;;;;;;;;;;;;;;;;;5092084;28;19962;-82
2024/01/11 07:02:47;;;;;;;;;;;;;;;;;;5080941;28;19919;-81
2024/01/11 07:05:13;;;;;;;;;;;;;;;;;;5072434;28;19916;-81
2024/01/11 07:07:39;;;;;;;;;;;;;;;;;;5083769;28;19927;-81
2024/01/11 07:10:05;;;;;;;;;;;;;;;;;;5091572;28;19951;-82
2024/01/11 07:12:31;;;;;;;;;;;;;;;;;;5091565;28;19912;-82
2024/01/11 07:14:57;;;;;;;;;;;;;;;;;;5087731;28;19960;-81
2024/01/11 07:17:23;;;;;;;;;;;;;;;;;;5091641;28;20020;-80
2024/01/11 07:19:49;;;;;;;;;;;;;;;;;;5091848;28;19916;-80
2024/01/11 07:22:15;;;;;;;;;;;;;;;;;;5091493;28;19916;-80
2024/01/11 07:24:41;;;;;;;;;;;;;;;;;;5091406;28;20277;-80
2024/01/11 07:27:06;;;;;;;;;;;;;;;;;;5089987;28;19912;-80
2024/01/11 07:29:32;;;;;;;;;;;;;;;;;;5078647;28;19923;-80
2024/01/11 07:31:58;;;;;;;;;;;;;;;;;;5080405;28;19912;-80
2024/01/11 07:34:24;;;;;;;;;;;;;;;;;;5089057;28;19965;-81
2024/01/11 07:36:50;;;;;;;;;;;;;;;;;;5091642;28;19916;-80
2024/01/11 07:39:16;;;;;;;;;;;;;;;;;;5090067;28;20294;-79
2024/01/11 07:41:42;;;;;;;;;;;;;;;;;;5090969;28;19927;-83
2024/01/11 07:44:08;;;;;;;;;;;;;;;;;;5089771;28;20370;-82
2024/01/11 07:46:34;;;;;;;;;;;;;;;;;;5078482;28;19917;-82
2024/01/11 07:49:00;;;;;;;;;;;;;;;;;;5070990;28;19992;-82
2024/01/11 07:51:27;;;;;;;;;;;;;;;;;;5089400;28;19919;-82
2024/01/11 07:53:53;;;;;;;;;;;;;;;;;;5091289;28;19912;-82
2024/01/11 07:56:18;;;;;;;;;;;;;;;;;;5089627;28;19919;-83
2024/01/11 07:58:44;;;;;;;;;;;;;;;;;;5090720;28;20280;-82
2024/01/11 08:01:10;;;;;;;;;;;;;;;;;;5090929;28;19912;-82
2024/01/11 08:03:36;;;;;;;;;;;;;;;;;;5091120;28;19966;-81
2024/01/11 08:06:02;;;;;;;;;;;;;;;;;;5081456;28;19995;-81
2024/01/11 08:08:28;;;;;;;;;;;;;;;;;;5080949;28;19923;-81
2024/01/11 08:10:54;;;;;;;;;;;;;;;;;;5074070;28;20401;-81
2024/01/11 08:13:21;;;;;;;;;;;;;;;;;;5075630;28;19955;-81
2024/01/11 08:15:47;;;;;;;;;;;;;;;;;;5076303;28;19919;-81
2024/01/11 08:18:13;;;;;;;;;;;;;;;;;;5075107;28;19908;-81
2024/01/11 08:20:39;;;;;;;;;;;;;;;;;;5090830;28;19919;-81
2024/01/11 08:23:06;;;;;;;;;;;;;;;;;;5071988;28;20247;-81
2024/01/11 08:25:32;;;;;;;;;;;;;;;;;;5090183;28;20011;-81
2024/01/11 08:27:58;;;;;;;;;;;;;;;;;;5083877;28;19923;-81
2024/01/11 08:30:24;;;;;;;;;;;;;;;;;;5073628;28;19920;-81
2024/01/11 08:32:49;;;;;;;;;;;;;;;;;;5077502;28;19952;-82
2024/01/11 08:35:16;;;;;;;;;;;;;;;;;;5081421;28;20025;-83
2024/01/11 08:37:42;;;;;;;;;;;;;;;;;;5099007;28;20099;-81
2024/01/11 08:40:09;;;;;;;;;;;;;;;;;;5097333;28;20343;-80
2024/01/11 08:42:35;;;;;;;;;;;;;;;;;;5081529;28;19920;-84
2024/01/11 08:45:06;;;;;;;;;;;;;;;;;;5092996;28;19997;-84
2024/01/11 08:47:32;;;;;;;;;;;;;;;;;;5086217;28;19974;-84
2024/01/11 08:49:58;;;;;;;;;;;;;;;;;;5083610;28;20552;-84
2024/01/11 08:52:23;;;;;;;;;;;;;;;;;;5091727;28;19908;-83
2024/01/11 08:54:49;;;;;;;;;;;;;;;;;;5090752;28;20053;-84
2024/01/11 08:57:17;;;;;;;;;;;;;;;;;;5074901;28;19920;-83
2024/01/11 08:59:42;;;;;;;;;;;;;;;;;;5077334;28;19962;-83
2024/01/11 09:02:08;;;;;;;;;;;;;;;;;;5086876;28;20010;-83
2024/01/11 09:04:34;;;;;;;;;;;;;;;;;;5077518;28;19922;-86
2024/01/11 09:07:00;;;;;;;;;;;;;;;;;;5088914;28;19999;-83
2024/01/11 09:09:26;;;;;;;;;;;;;;;;;;5091370;28;19934;-88
2024/01/11 09:11:52;;;;;;;;;;;;;;;;;;5088902;28;19943;-86
2024/01/11 09:14:17;;;;;;;;;;;;;;;;;;5082272;28;19916;-87
2024/01/11 09:16:44;;;;;;;;;;;;;;;;;;5089213;28;19915;-86
2024/01/11 09:19:10;;;;;;;;;;;;;;;;;;5087553;28;19912;-86
2024/01/11 09:21:36;;;;;;;;;;;;;;;;;;5096399;28;19908;-87
2024/01/11 09:24:02;;;;;;;;;;;;;;;;;;5092630;28;19927;-86
2024/01/11 09:26:28;;;;;;;;;;;;;;;;;;5092845;28;19946;-86
2024/01/11 09:28:54;;;;;;;;;;;;;;;;;;5091578;28;20018;-86
2024/01/11 09:31:21;;;;;;;;;;;;;;;;;;5079731;28;21528;-86
2024/01/11 09:33:49;;;;;;;;;;;;;;;;;;5079790;28;19923;-86
2024/01/11 09:36:15;;;;;;;;;;;;;;;;;;5076595;28;19916;-82
2024/01/11 09:38:41;;;;;;;;;;;;;;;;;;5075953;28;19969;-81
2024/01/11 09:41:07;;;;;;;;;;;;;;;;;;5083914;28;19917;-81
2024/01/11 09:43:33;;;;;;;;;;;;;;;;;;5086612;28;19927;-82
2024/01/11 09:45:59;;;;;;;;;;;;;;;;;;5070773;28;19924;-82
2024/01/11 09:48:25;;;;;;;;;;;;;;;;;;5079309;28;19926;-82
2024/01/11 09:50:51;;;;;;;;;;;;;;;;;;5083233;28;19916;-81
2024/01/11 09:53:17;;;;;;;;;;;;;;;;;;5080700;28;19912;-81
2024/01/11 09:55:43;;;;;;;;;;;;;;;;;;5087603;28;19922;-80
2024/01/11 09:58:09;;;;;;;;;;;;;;;;;;5086710;28;19916;-82
2024/01/11 10:00:35;;;;;;;;;;;;;;;;;;5081595;28;19923;-81
2024/01/11 10:03:01;;;;;;;;;;;;;;;;;;5082699;28;20427;-82
2024/01/11 10:05:26;;;;;;;;;;;;;;;;;;5069086;28;20550;-81
2024/01/11 10:07:52;;;;;;;;;;;;;;;;;;5067045;28;20061;-81
2024/01/11 10:10:18;;;;;;;;;;;;;;;;;;5074070;28;19919;-81
2024/01/11 10:12:44;;;;;;;;;;;;;;;;;;5074540;28;19912;-81
2024/01/11 10:15:10;;;;;;;;;;;;;;;;;;5079915;28;19920;-81
2024/01/11 10:17:36;;;;;;;;;;;;;;;;;;5083556;28;20278;-81
2024/01/11 10:20:03;;;;;;;;;;;;;;;;;;5083166;28;19919;-81
2024/01/11 10:22:29;;;;;;;;;;;;;;;;;;5087763;28;19916;-81
2024/01/11 10:24:54;;;;;;;;;;;;;;;;;;5083673;28;20188;-81
2024/01/11 10:27:20;;;;;;;;;;;;;;;;;;5082166;28;19920;-81
2024/01/11 10:29:46;;;;;;;;;;;;;;;;;;5076721;28;19916;-80
2024/01/11 10:32:12;;;;;;;;;;;;;;;;;;5083459;28;19919;-86
2024/01/11 10:34:41;;;;;;;;;;;;;;;;;;5082937;28;19920;-78
2024/01/11 10:37:06;;;;;;;;;;;;;;;;;;5088859;28;19908;-77
2024/01/11 10:39:32;;;;;;;;;;;;;;;;;;5082538;28;19912;-77
2024/01/11 10:41:58;;;;;;;;;;;;;;;;;;5087614;28;19999;-83
2024/01/11 10:44:24;;;;;;;;;;;;;;;;;;5083920;28;19912;-83
2024/01/11 10:46:50;;;;;;;;;;;;;;;;;;5085967;28;20011;-82
2024/01/11 10:49:16;;;;;;;;;;;;;;;;;;5068450;28;19913;-83
2024/01/11 10:51:42;;;;;;;;;;;;;;;;;;5072283;28;19912;-82
2024/01/11 10:54:08;;;;;;;;;;;;;;;;;;5088228;28;20357;-83
2024/01/11 10:56:34;;;;;;;;;;;;;;;;;;5088301;28;20385;-83
2024/01/11 10:59:00;;;;;;;;;;;;;;;;;;5088146;28;20004;-82
2024/01/11 11:01:26;;;;;;;;;;;;;;;;;;5087349;28;19966;-83
2024/01/11 11:03:52;;;;;;;;;;;;;;;;;;5086212;28;19916;-83
2024/01/11 11:06:17;;;;;;;;;;;;;;;;;;5091092;28;19997;-82
2024/01/11 11:08:43;;;;;;;;;;;;;;;;;;5091923;28;19916;-83
2024/01/11 11:11:09;;;;;;;;;;;;;;;;;;5091893;28;19923;-83
2024/01/11 11:13:35;;;;;;;;;;;;;;;;;;5071807;28;20027;-83
2024/01/11 11:16:03;;;;;;;;;;;;;;;;;;5085953;28;19999;-83
2024/01/11 11:18:29;;;;;;;;;;;;;;;;;;5091816;28;19912;-83
2024/01/11 11:20:55;;;;;;;;;;;;;;;;;;5091233;28;19908;-83
2024/01/11 11:23:21;;;;;;;;;;;;;;;;;;5086939;28;19993;-83
2024/01/11 11:25:47;;;;;;;;;;;;;;;;;;5072671;28;19920;-83
2024/01/11 11:28:13;;;;;;;;;;;;;;;;;;5083985;28;19938;-83
2024/01/11 11:30:39;;;;;;;;;;;;;;;;;;5079356;28;19940;-83
2024/01/11 11:33:04;;;;;;;;;;;;;;;;;;5071657;28;19963;-83
2024/01/11 11:35:30;;;;;;;;;;;;;;;;;;5071152;28;19908;-83
2024/01/11 11:37:57;;;;;;;;;;;;;;;;;;5071244;28;19915;-83
2024/01/11 11:40:23;;;;;;;;;;;;;;;;;;5074471;28;19915;-83
2024/01/11 11:42:48;;;;;;;;;;;;;;;;;;5091628;28;20020;-83
2024/01/11 11:45:14;;;;;;;;;;;;;;;;;;5091089;28;20032;-83
2024/01/11 11:47:42;;;;;;;;;;;;;;;;;;5091064;28;19916;-83
2024/01/11 11:50:09;;;;;;;;;;;;;;;;;;5091366;28;19939;-83
2024/01/11 11:52:35;;;;;;;;;;;;;;;;;;5090935;28;20007;-83
2024/01/11 11:55:01;;;;;;;;;;;;;;;;;;5090943;28;20424;-83
2024/01/11 11:57:27;;;;;;;;;;;;;;;;;;5090929;28;19912;-83
2024/01/11 11:59:53;;;;;;;;;;;;;;;;;;5090899;28;19995;-83
2024/01/11 12:02:19;;;;;;;;;;;;;;;;;;5090266;28;19965;-82
2024/01/11 12:04:45;;;;;;;;;;;;;;;;;;5090803;28;19919;-83
2024/01/11 12:07:11;;;;;;;;;;;;;;;;;;5090462;28;19908;-82
2024/01/11 12:09:37;;;;;;;;;;;;;;;;;;5090499;28;20180;-82
2024/01/11 12:12:03;;;;;;;;;;;;;;;;;;5083098;28;19916;-83
2024/01/11 12:14:29;;;;;;;;;;;;;;;;;;5070438;28;20410;-83
2024/01/11 12:16:54;;;;;;;;;;;;;;;;;;5082398;28;20333;-83
2024/01/11 12:19:20;;;;;;;;;;;;;;;;;;5090119;28;19928;-82
2024/01/11 12:21:46;;;;;;;;;;;;;;;;;;5082856;28;19908;-83
2024/01/11 12:24:12;;;;;;;;;;;;;;;;;;5070063;28;19924;-82
2024/01/11 12:26:38;;;;;;;;;;;;;;;;;;5078340;28;19919;-83
2024/01/11 12:29:04;;;;;;;;;;;;;;;;;;5086991;28;20022;-83
2024/01/11 12:31:29;;;;;;;;;;;;;;;;;;5077257;28;19942;-82
2024/01/11 12:33:55;;;;;;;;;;;;;;;;;;5075777;28;19908;-83
2024/01/11 12:36:21;;;;;;;;;;;;;;;;;;5070129;28;20355;-83
2024/01/11 12:38:48;;;;;;;;;;;;;;;;;;5074230;28;19995;-83
2024/01/11 12:41:13;;;;;;;;;;;;;;;;;;5087473;28;19912;-83
2024/01/11 12:43:39;;;;;;;;;;;;;;;;;;5089761;28;19918;-82
2024/01/11 12:46:05;;;;;;;;;;;;;;;;;;5089608;28;20383;-83
2024/01/11 12:48:31;;;;;;;;;;;;;;;;;;5089703;28;20259;-82
2024/01/11 12:50:57;;;;;;;;;;;;;;;;;;5089841;28;20351;-82
2024/01/11 12:53:23;;;;;;;;;;;;;;;;;;5089891;28;20328;-82
2024/01/11 12:55:49;;;;;;;;;;;;;;;;;;5089825;28;19924;-82
2024/01/11 12:58:14;;;;;;;;;;;;;;;;;;5089431;28;19974;-82
2024/01/11 13:00:40;;;;;;;;;;;;;;;;;;5088224;28;19912;-81
2024/01/11 13:03:06;;;;;;;;;;;;;;;;;;5089743;28;19962;-82
2024/01/11 13:05:35;;;;;;;;;;;;;;;;;;5088528;28;19908;-82
2024/01/11 13:08:01;;;;;;;;;;;;;;;;;;5088711;28;20011;-81
2024/01/11 13:10:27;;;;;;;;;;;;;;;;;;5086337;28;19912;-82
2024/01/11 13:12:53;;;;;;;;;;;;;;;;;;5075599;28;20282;-82
2024/01/11 13:15:19;;;;;;;;;;;;;;;;;;5069442;28;20050;-82
2024/01/11 13:17:45;;;;;;;;;;;;;;;;;;5081179;28;19916;-82
2024/01/11 13:20:11;;;;;;;;;;;;;;;;;;5084398;28;19919;-82
2024/01/11 13:22:37;;;;;;;;;;;;;;;;;;5074464;28;19908;-82
2024/01/11 13:25:02;;;;;;;;;;;;;;;;;;5069196;28;19935;-82
2024/01/11 13:27:28;;;;;;;;;;;;;;;;;;5073049;28;20325;-82
2024/01/11 13:29:54;;;;;;;;;;;;;;;;;;5070888;28;19924;-81
2024/01/11 13:32:22;;;;;;;;;;;;;;;;;;5074712;28;19969;-82
2024/01/11 13:34:48;;;;;;;;;;;;;;;;;;5069066;28;19912;-82
2024/01/11 13:37:13;;;;;;;;;;;;;;;;;;5069047;28;19919;-82
2024/01/11 13:39:39;;;;;;;;;;;;;;;;;;5068753;28;19916;-82
2024/01/11 13:42:09;;;;;;;;;;;;;;;;;;5074001;28;20021;-82
2024/01/11 13:44:35;;;;;;;;;;;;;;;;;;5087774;28;19912;-82
2024/01/11 13:47:01;;;;;;;;;;;;;;;;;;5087497;28;19931;-82
2024/01/11 13:49:26;;;;;;;;;;;;;;;;;;5069102;28;19912;-82
2024/01/11 13:51:52;;;;;;;;;;;;;;;;;;5069056;28;20020;-82
2024/01/11 13:54:18;;;;;;;;;;;;;;;;;;5076569;28;19951;-81
2024/01/11 13:56:44;;;;;;;;;;;;;;;;;;5088832;28;19908;-81
2024/01/11 13:59:10;;;;;;;;;;;;;;;;;;5089042;28;19912;-82
2024/01/11 14:01:36;;;;;;;;;;;;;;;;;;5088783;28;20012;-82
2024/01/11 14:04:02;;;;;;;;;;;;;;;;;;5086993;28;20351;-82
2024/01/11 14:06:28;;;;;;;;;;;;;;;;;;5088956;28;20390;-82
2024/01/11 14:08:54;;;;;;;;;;;;;;;;;;5088690;28;19947;-82
2024/01/11 14:11:20;;;;;;;;;;;;;;;;;;5088736;28;19912;-82
2024/01/11 14:13:46;;;;;;;;;;;;;;;;;;5088600;28;20462;-82
2024/01/11 14:16:13;;;;;;;;;;;;;;;;;;5071705;28;19919;-82
2024/01/11 14:18:39;;;;;;;;;;;;;;;;;;5071852;28;20007;-82
2024/01/11 14:21:05;;;;;;;;;;;;;;;;;;5082205;28;19912;-83
2024/01/11 14:23:31;;;;;;;;;;;;;;;;;;5068243;28;19924;-83
2024/01/11 14:25:57;;;;;;;;;;;;;;;;;;5080761;28;19920;-82
2024/01/11 14:28:23;;;;;;;;;;;;;;;;;;5080011;28;19913;-82
2024/01/11 14:30:49;;;;;;;;;;;;;;;;;;5068401;28;19982;-82
2024/01/11 14:33:15;;;;;;;;;;;;;;;;;;5074473;28;20105;-82
2024/01/11 14:35:40;;;;;;;;;;;;;;;;;;5072494;28;19962;-82
2024/01/11 14:38:06;;;;;;;;;;;;;;;;;;5068648;28;19909;-81
2024/01/11 14:40:32;;;;;;;;;;;;;;;;;;5070672;28;20370;-81
2024/01/11 14:42:58;;;;;;;;;;;;;;;;;;5072109;28;19912;-82
2024/01/11 14:45:24;;;;;;;;;;;;;;;;;;5092582;28;19942;-82
2024/01/11 14:47:50;;;;;;;;;;;;;;;;;;5091590;28;19916;-82
2024/01/11 14:50:16;;;;;;;;;;;;;;;;;;5076754;28;19912;-81
2024/01/11 14:52:42;;;;;;;;;;;;;;;;;;5071990;28;19909;-82
2024/01/11 14:55:09;;;;;;;;;;;;;;;;;;5072313;28;19908;-81
2024/01/11 14:57:35;;;;;;;;;;;;;;;;;;5085807;28;20390;-82
2024/01/11 15:00:01;;;;;;;;;;;;;;;;;;5091812;28;19912;-81
2024/01/11 15:02:27;;;;;;;;;;;;;;;;;;5092097;28;20769;-82
2024/01/11 15:04:53;;;;;;;;;;;;;;;;;;5091913;28;19916;-82
2024/01/11 15:07:19;;;;;;;;;;;;;;;;;;5091806;28;20383;-82
2024/01/11 15:09:45;;;;;;;;;;;;;;;;;;5088486;28;20476;-81
2024/01/11 15:12:11;;;;;;;;;;;;;;;;;;5085173;28;19919;-83
2024/01/11 15:14:37;;;;;;;;;;;;;;;;;;5088328;28;19913;-85
2024/01/11 15:17:03;;;;;;;;;;;;;;;;;;5091373;28;19912;-82
2024/01/11 15:19:29;;;;;;;;;;;;;;;;;;5072684;28;20394;-83
2024/01/11 15:21:55;;;;;;;;;;;;;;;;;;5081264;28;20396;-81
2024/01/11 15:24:21;;;;;;;;;;;;;;;;;;5079240;28;19920;-81
2024/01/11 15:26:47;;;;;;;;;;;;;;;;;;5079932;28;20483;-82
2024/01/11 15:29:13;;;;;;;;;;;;;;;;;;5078972;28;20421;-82
2024/01/11 15:31:41;;;;;;;;;;;;;;;;;;5080555;28;19960;-82
2024/01/11 15:34:07;;;;;;;;;;;;;;;;;;5079930;28;19966;-82
2024/01/11 15:36:33;;;;;;;;;;;;;;;;;;5080425;28;20092;-81
2024/01/11 15:38:59;;;;;;;;;;;;;;;;;;5080729;28;19926;-82
2024/01/11 15:41:25;;;;;;;;;;;;;;;;;;5081211;28;19916;-82
2024/01/11 15:43:51;;;;;;;;;;;;;;;;;;5079277;28;19916;-83
2024/01/11 15:46:17;;;;;;;;;;;;;;;;;;5079901;28;19956;-78
2024/01/11 15:48:43;;;;;;;;;;;;;;;;;;5079289;28;19931;-78
2024/01/11 15:51:09;;;;;;;;;;;;;;;;;;5080323;28;20003;-76
2024/01/11 15:53:35;;;;;;;;;;;;;;;;;;5079780;28;20024;-77
2024/01/11 15:56:00;;;;;;;;;;;;;;;;;;5080228;28;20292;-77
2024/01/11 15:58:26;;;;;;;;;;;;;;;;;;5079552;28;19942;-77
2024/01/11 16:00:52;;;;;;;;;;;;;;;;;;5079423;28;19916;-77
2024/01/11 16:03:18;;;;;;;;;;;;;;;;;;5079277;28;19912;-77
2024/01/11 16:05:44;;;;;;;;;;;;;;;;;;5079233;28;19920;-77
2024/01/11 16:08:10;;;;;;;;;;;;;;;;;;5079171;28;19927;-85
2024/01/11 16:10:35;;;;;;;;;;;;;;;;;;5080406;28;19966;-83
2024/01/11 16:13:02;;;;;;;;;;;;;;;;;;5079104;28;19916;-84
2024/01/11 16:15:27;;;;;;;;;;;;;;;;;;5079973;28;19912;-79
2024/01/11 16:17:53;;;;;;;;;;;;;;;;;;5081031;28;19997;-85
2024/01/11 16:20:19;;;;;;;;;;;;;;;;;;5080053;28;19955;-90
2024/01/11 16:22:45;;;;;;;;;;;;;;;;;;5079103;28;19920;-84
2024/01/11 16:25:11;;;;;;;;;;;;;;;;;;5079320;28;19916;-84
2024/01/11 16:27:37;;;;;;;;;;;;;;;;;;5079432;28;19920;-81
2024/01/11 16:30:03;;;;;;;;;;;;;;;;;;5079233;28;19927;-83
2024/01/11 16:32:31;;;;;;;;;;;;;;;;;;5078880;28;20305;-83
2024/01/11 16:34:57;;;;;;;;;;;;;;;;;;5079192;28;19919;-83
2024/01/11 16:37:22;;;;;;;;;;;;;;;;;;5070306;28;20084;-84